sensor_id;sensor_type;location;lat;lon;timestamp;P1;durP1;ratioP1;P2;durP2;ratioP2
12196;SDS011;6161;43.014;25.840;2022-12-07T00:02:01;3.23;;;2.47;;
12196;SDS011;6161;43.014;25.840;2022-12-07T00:04:26;8.03;;;2.03;;
12196;SDS011;6161;43.014;25.840;2022-12-07T00:06:52;2.03;;;1.63;;
12196;SDS011;6161;43.014;25.840;2022-12-07T00:09:17;2.37;;;1.87;;
12196;SDS011;6161;43.014;25.840;2022-12-07T00:11:43;5.80;;;1.90;;
12196;SDS011;6161;43.014;25.840;2022-12-07T00:14:13;2.80;;;2.17;;
12196;SDS011;6161;43.014;25.840;2022-12-07T00:16:41;11.70;;;2.67;;
12196;SDS011;6161;43.014;25.840;2022-12-07T00:19:06;2.63;;;2.23;;
12196;SDS011;6161;43.014;25.840;2022-12-07T00:21:33;4.07;;;2.67;;
12196;SDS011;6161;43.014;25.840;2022-12-07T00:23:59;7.40;;;2.37;;
12196;SDS011;6161;43.014;25.840;2022-12-07T00:26:28;3.50;;;2.27;;
12196;SDS011;6161;43.014;25.840;2022-12-07T00:28:55;4.03;;;2.90;;
12196;SDS011;6161;43.014;25.840;2022-12-07T00:31:22;6.13;;;2.97;;
12196;SDS011;6161;43.014;25.840;2022-12-07T00:33:50;8.20;;;2.40;;
12196;SDS011;6161;43.014;25.840;2022-12-07T00:36:17;4.03;;;2.83;;
12196;SDS011;6161;43.014;25.840;2022-12-07T00:38:43;9.43;;;3.10;;
12196;SDS011;6161;43.014;25.840;2022-12-07T00:41:15;4.07;;;2.67;;
12196;SDS011;6161;43.014;25.840;2022-12-07T00:43:43;5.17;;;3.30;;
12196;SDS011;6161;43.014;25.840;2022-12-07T00:46:09;4.53;;;2.87;;
12196;SDS011;6161;43.014;25.840;2022-12-07T00:48:34;6.43;;;3.37;;
12196;SDS011;6161;43.014;25.840;2022-12-07T00:51:00;6.00;;;3.60;;
12196;SDS011;6161;43.014;25.840;2022-12-07T00:53:26;4.97;;;3.67;;
12196;SDS011;6161;43.014;25.840;2022-12-07T00:55:51;5.00;;;3.83;;
12196;SDS011;6161;43.014;25.840;2022-12-07T00:58:17;4.10;;;2.80;;
12196;SDS011;6161;43.014;25.840;2022-12-07T01:00:43;4.03;;;2.97;;
12196;SDS011;6161;43.014;25.840;2022-12-07T01:03:09;5.40;;;3.90;;
12196;SDS011;6161;43.014;25.840;2022-12-07T01:05:35;5.47;;;3.37;;
12196;SDS011;6161;43.014;25.840;2022-12-07T01:08:01;4.07;;;2.97;;
12196;SDS011;6161;43.014;25.840;2022-12-07T01:10:28;4.27;;;3.07;;
12196;SDS011;6161;43.014;25.840;2022-12-07T01:12:59;4.37;;;2.80;;
12196;SDS011;6161;43.014;25.840;2022-12-07T01:15:25;4.60;;;3.20;;
12196;SDS011;6161;43.014;25.840;2022-12-07T01:17:51;4.43;;;2.77;;
12196;SDS011;6161;43.014;25.840;2022-12-07T01:20:17;4.20;;;3.33;;
12196;SDS011;6161;43.014;25.840;2022-12-07T01:22:42;4.17;;;3.37;;
12196;SDS011;6161;43.014;25.840;2022-12-07T01:25:08;5.67;;;2.63;;
12196;SDS011;6161;43.014;25.840;2022-12-07T01:27:33;5.33;;;3.23;;
12196;SDS011;6161;43.014;25.840;2022-12-07T01:29:59;4.50;;;3.50;;
12196;SDS011;6161;43.014;25.840;2022-12-07T01:32:24;6.43;;;4.27;;
12196;SDS011;6161;43.014;25.840;2022-12-07T01:34:50;5.67;;;4.17;;
12196;SDS011;6161;43.014;25.840;2022-12-07T01:37:15;8.23;;;4.00;;
12196;SDS011;6161;43.014;25.840;2022-12-07T01:39:41;6.83;;;4.13;;
12196;SDS011;6161;43.014;25.840;2022-12-07T01:42:11;6.47;;;3.63;;
12196;SDS011;6161;43.014;25.840;2022-12-07T01:47:23;6.37;;;3.60;;
12196;SDS011;6161;43.014;25.840;2022-12-07T01:49:49;7.23;;;4.17;;
12196;SDS011;6161;43.014;25.840;2022-12-07T01:52:27;12.47;;;4.60;;
12196;SDS011;6161;43.014;25.840;2022-12-07T01:54:54;9.67;;;4.53;;
12196;SDS011;6161;43.014;25.840;2022-12-07T01:57:21;6.77;;;4.10;;
12196;SDS011;6161;43.014;25.840;2022-12-07T01:59:47;7.10;;;4.60;;
12196;SDS011;6161;43.014;25.840;2022-12-07T02:02:17;8.10;;;4.63;;
12196;SDS011;6161;43.014;25.840;2022-12-07T02:04:43;5.07;;;3.77;;
12196;SDS011;6161;43.014;25.840;2022-12-07T02:07:09;7.27;;;4.23;;
12196;SDS011;6161;43.014;25.840;2022-12-07T02:09:34;6.93;;;4.40;;
12196;SDS011;6161;43.014;25.840;2022-12-07T02:11:59;5.93;;;3.70;;
12196;SDS011;6161;43.014;25.840;2022-12-07T02:14:25;7.67;;;4.20;;
12196;SDS011;6161;43.014;25.840;2022-12-07T02:29:47;8.33;;;4.23;;
12196;SDS011;6161;43.014;25.840;2022-12-07T02:32:25;6.23;;;3.77;;
12196;SDS011;6161;43.014;25.840;2022-12-07T02:34:55;6.53;;;4.47;;
12196;SDS011;6161;43.014;25.840;2022-12-07T02:40:20;6.00;;;4.13;;
12196;SDS011;6161;43.014;25.840;2022-12-07T02:42:49;6.77;;;3.53;;
12196;SDS011;6161;43.014;25.840;2022-12-07T02:45:17;7.10;;;3.93;;
12196;SDS011;6161;43.014;25.840;2022-12-07T02:47:44;7.03;;;4.13;;
12196;SDS011;6161;43.014;25.840;2022-12-07T02:50:10;6.60;;;3.83;;
12196;SDS011;6161;43.014;25.840;2022-12-07T02:52:36;5.53;;;3.73;;
12196;SDS011;6161;43.014;25.840;2022-12-07T02:55:02;10.63;;;4.40;;
12196;SDS011;6161;43.014;25.840;2022-12-07T02:57:38;5.50;;;3.97;;
12196;SDS011;6161;43.014;25.840;2022-12-07T03:00:07;5.60;;;3.93;;
12196;SDS011;6161;43.014;25.840;2022-12-07T03:02:36;5.67;;;4.07;;
12196;SDS011;6161;43.014;25.840;2022-12-07T03:12:28;6.30;;;4.10;;
12196;SDS011;6161;43.014;25.840;2022-12-07T03:15:03;6.30;;;4.03;;
12196;SDS011;6161;43.014;25.840;2022-12-07T03:17:30;6.90;;;3.97;;
12196;SDS011;6161;43.014;25.840;2022-12-07T03:19:59;6.80;;;4.00;;
12196;SDS011;6161;43.014;25.840;2022-12-07T03:22:25;5.57;;;3.70;;
12196;SDS011;6161;43.014;25.840;2022-12-07T03:24:55;6.27;;;3.63;;
12196;SDS011;6161;43.014;25.840;2022-12-07T03:27:21;5.70;;;4.07;;
12196;SDS011;6161;43.014;25.840;2022-12-07T03:29:50;9.40;;;4.70;;
12196;SDS011;6161;43.014;25.840;2022-12-07T03:34:49;6.60;;;4.07;;
12196;SDS011;6161;43.014;25.840;2022-12-07T03:38:06;8.00;;;4.20;;
12196;SDS011;6161;43.014;25.840;2022-12-07T03:40:08;8.40;;;4.00;;
12196;SDS011;6161;43.014;25.840;2022-12-07T03:42:41;5.93;;;3.53;;
12196;SDS011;6161;43.014;25.840;2022-12-07T03:45:07;12.80;;;6.63;;
12196;SDS011;6161;43.014;25.840;2022-12-07T03:47:46;9.47;;;4.97;;
12196;SDS011;6161;43.014;25.840;2022-12-07T03:52:48;9.33;;;5.63;;
12196;SDS011;6161;43.014;25.840;2022-12-07T03:55:20;6.57;;;4.40;;
12196;SDS011;6161;43.014;25.840;2022-12-07T03:57:47;6.07;;;3.93;;
12196;SDS011;6161;43.014;25.840;2022-12-07T04:00:14;7.13;;;4.43;;
12196;SDS011;6161;43.014;25.840;2022-12-07T04:02:40;8.57;;;5.03;;
12196;SDS011;6161;43.014;25.840;2022-12-07T04:05:06;6.77;;;4.07;;
12196;SDS011;6161;43.014;25.840;2022-12-07T04:07:32;7.10;;;4.40;;
12196;SDS011;6161;43.014;25.840;2022-12-07T04:09:57;7.40;;;4.43;;
12196;SDS011;6161;43.014;25.840;2022-12-07T04:12:23;8.63;;;4.10;;
12196;SDS011;6161;43.014;25.840;2022-12-07T04:14:49;6.33;;;4.30;;
12196;SDS011;6161;43.014;25.840;2022-12-07T04:17:15;8.10;;;4.53;;
12196;SDS011;6161;43.014;25.840;2022-12-07T04:19:40;5.67;;;4.10;;
12196;SDS011;6161;43.014;25.840;2022-12-07T04:22:06;5.83;;;4.00;;
12196;SDS011;6161;43.014;25.840;2022-12-07T04:24:32;8.00;;;4.57;;
12196;SDS011;6161;43.014;25.840;2022-12-07T04:26:57;8.53;;;4.27;;
12196;SDS011;6161;43.014;25.840;2022-12-07T04:29:23;7.00;;;4.03;;
12196;SDS011;6161;43.014;25.840;2022-12-07T04:31:48;6.20;;;4.60;;
12196;SDS011;6161;43.014;25.840;2022-12-07T04:34:14;8.30;;;4.37;;
12196;SDS011;6161;43.014;25.840;2022-12-07T04:36:40;6.57;;;4.00;;
12196;SDS011;6161;43.014;25.840;2022-12-07T04:39:06;8.00;;;3.87;;
12196;SDS011;6161;43.014;25.840;2022-12-07T04:41:32;9.10;;;4.93;;
12196;SDS011;6161;43.014;25.840;2022-12-07T04:43:58;8.27;;;3.80;;
12196;SDS011;6161;43.014;25.840;2022-12-07T04:46:24;7.60;;;4.63;;
12196;SDS011;6161;43.014;25.840;2022-12-07T04:48:50;6.90;;;4.27;;
12196;SDS011;6161;43.014;25.840;2022-12-07T04:51:18;9.53;;;5.20;;
12196;SDS011;6161;43.014;25.840;2022-12-07T04:53:44;7.27;;;4.40;;
12196;SDS011;6161;43.014;25.840;2022-12-07T04:56:09;9.40;;;4.90;;
12196;SDS011;6161;43.014;25.840;2022-12-07T04:58:34;7.20;;;4.47;;
12196;SDS011;6161;43.014;25.840;2022-12-07T05:01:00;8.17;;;5.27;;
12196;SDS011;6161;43.014;25.840;2022-12-07T05:03:25;7.27;;;4.67;;
12196;SDS011;6161;43.014;25.840;2022-12-07T05:05:50;6.60;;;3.87;;
12196;SDS011;6161;43.014;25.840;2022-12-07T05:08:16;7.50;;;4.93;;
12196;SDS011;6161;43.014;25.840;2022-12-07T05:10:41;6.67;;;4.57;;
12196;SDS011;6161;43.014;25.840;2022-12-07T05:13:06;6.60;;;3.93;;
12196;SDS011;6161;43.014;25.840;2022-12-07T05:15:31;7.13;;;4.53;;
12196;SDS011;6161;43.014;25.840;2022-12-07T05:17:57;5.77;;;4.00;;
12196;SDS011;6161;43.014;25.840;2022-12-07T05:20:22;8.80;;;4.83;;
12196;SDS011;6161;43.014;25.840;2022-12-07T05:22:47;7.90;;;4.83;;
12196;SDS011;6161;43.014;25.840;2022-12-07T05:25:12;10.30;;;5.97;;
12196;SDS011;6161;43.014;25.840;2022-12-07T05:27:38;11.33;;;5.17;;
12196;SDS011;6161;43.014;25.840;2022-12-07T05:30:04;7.50;;;5.07;;
12196;SDS011;6161;43.014;25.840;2022-12-07T05:32:29;8.27;;;5.90;;
12196;SDS011;6161;43.014;25.840;2022-12-07T05:34:55;12.40;;;5.80;;
12196;SDS011;6161;43.014;25.840;2022-12-07T05:37:20;8.17;;;5.13;;
12196;SDS011;6161;43.014;25.840;2022-12-07T05:39:45;7.50;;;4.83;;
12196;SDS011;6161;43.014;25.840;2022-12-07T05:42:11;6.67;;;4.07;;
12196;SDS011;6161;43.014;25.840;2022-12-07T05:44:42;6.73;;;4.50;;
12196;SDS011;6161;43.014;25.840;2022-12-07T05:47:08;8.30;;;4.70;;
12196;SDS011;6161;43.014;25.840;2022-12-07T05:49:33;5.87;;;3.73;;
12196;SDS011;6161;43.014;25.840;2022-12-07T05:51:59;6.17;;;3.40;;
12196;SDS011;6161;43.014;25.840;2022-12-07T05:54:24;9.00;;;4.77;;
12196;SDS011;6161;43.014;25.840;2022-12-07T05:56:49;9.17;;;5.30;;
12196;SDS011;6161;43.014;25.840;2022-12-07T05:59:15;5.97;;;3.70;;
12196;SDS011;6161;43.014;25.840;2022-12-07T06:02:02;6.80;;;3.90;;
12196;SDS011;6161;43.014;25.840;2022-12-07T06:04:31;7.00;;;4.53;;
12196;SDS011;6161;43.014;25.840;2022-12-07T06:06:57;7.57;;;4.13;;
12196;SDS011;6161;43.014;25.840;2022-12-07T06:09:22;5.50;;;3.97;;
12196;SDS011;6161;43.014;25.840;2022-12-07T06:11:48;6.83;;;4.87;;
12196;SDS011;6161;43.014;25.840;2022-12-07T06:14:32;11.40;;;6.43;;
12196;SDS011;6161;43.014;25.840;2022-12-07T06:16:57;9.83;;;6.60;;
12196;SDS011;6161;43.014;25.840;2022-12-07T06:19:23;9.63;;;5.97;;
12196;SDS011;6161;43.014;25.840;2022-12-07T06:21:48;9.10;;;5.23;;
12196;SDS011;6161;43.014;25.840;2022-12-07T06:24:15;8.77;;;4.60;;
12196;SDS011;6161;43.014;25.840;2022-12-07T06:26:40;8.13;;;5.17;;
12196;SDS011;6161;43.014;25.840;2022-12-07T06:29:06;7.30;;;4.43;;
12196;SDS011;6161;43.014;25.840;2022-12-07T06:31:31;6.70;;;4.10;;
12196;SDS011;6161;43.014;25.840;2022-12-07T06:33:58;7.83;;;4.57;;
12196;SDS011;6161;43.014;25.840;2022-12-07T06:36:23;8.90;;;4.10;;
12196;SDS011;6161;43.014;25.840;2022-12-07T06:38:48;7.33;;;3.90;;
12196;SDS011;6161;43.014;25.840;2022-12-07T06:41:13;7.10;;;4.40;;
12196;SDS011;6161;43.014;25.840;2022-12-07T06:43:39;5.23;;;4.07;;
12196;SDS011;6161;43.014;25.840;2022-12-07T06:46:04;7.90;;;4.30;;
12196;SDS011;6161;43.014;25.840;2022-12-07T06:48:30;5.97;;;3.97;;
12196;SDS011;6161;43.014;25.840;2022-12-07T06:50:55;6.70;;;3.47;;
12196;SDS011;6161;43.014;25.840;2022-12-07T06:53:20;5.80;;;3.43;;
12196;SDS011;6161;43.014;25.840;2022-12-07T06:55:46;5.20;;;3.80;;
12196;SDS011;6161;43.014;25.840;2022-12-07T06:58:11;5.40;;;3.67;;
12196;SDS011;6161;43.014;25.840;2022-12-07T07:00:36;5.83;;;3.77;;
12196;SDS011;6161;43.014;25.840;2022-12-07T07:03:02;6.47;;;4.40;;
12196;SDS011;6161;43.014;25.840;2022-12-07T07:05:27;5.83;;;3.67;;
12196;SDS011;6161;43.014;25.840;2022-12-07T07:07:53;5.93;;;4.23;;
12196;SDS011;6161;43.014;25.840;2022-12-07T07:10:18;6.33;;;3.87;;
12196;SDS011;6161;43.014;25.840;2022-12-07T07:12:43;4.00;;;3.50;;
12196;SDS011;6161;43.014;25.840;2022-12-07T07:15:09;5.37;;;3.33;;
12196;SDS011;6161;43.014;25.840;2022-12-07T07:17:34;4.83;;;3.37;;
12196;SDS011;6161;43.014;25.840;2022-12-07T07:20:00;5.57;;;3.70;;
12196;SDS011;6161;43.014;25.840;2022-12-07T07:22:25;6.17;;;3.87;;
12196;SDS011;6161;43.014;25.840;2022-12-07T07:24:50;6.53;;;4.57;;
12196;SDS011;6161;43.014;25.840;2022-12-07T07:27:16;5.63;;;4.10;;
12196;SDS011;6161;43.014;25.840;2022-12-07T07:29:41;7.13;;;4.00;;
12196;SDS011;6161;43.014;25.840;2022-12-07T07:32:06;7.87;;;4.30;;
12196;SDS011;6161;43.014;25.840;2022-12-07T07:34:32;8.43;;;5.20;;
12196;SDS011;6161;43.014;25.840;2022-12-07T07:36:58;6.27;;;4.63;;
12196;SDS011;6161;43.014;25.840;2022-12-07T07:39:23;8.83;;;5.13;;
12196;SDS011;6161;43.014;25.840;2022-12-07T07:41:48;11.23;;;5.80;;
12196;SDS011;6161;43.014;25.840;2022-12-07T07:44:14;10.00;;;5.20;;
12196;SDS011;6161;43.014;25.840;2022-12-07T07:46:39;9.57;;;4.77;;
12196;SDS011;6161;43.014;25.840;2022-12-07T07:49:04;10.23;;;4.70;;
12196;SDS011;6161;43.014;25.840;2022-12-07T07:51:29;8.57;;;4.87;;
12196;SDS011;6161;43.014;25.840;2022-12-07T07:53:55;6.67;;;4.97;;
12196;SDS011;6161;43.014;25.840;2022-12-07T07:56:20;6.93;;;4.83;;
12196;SDS011;6161;43.014;25.840;2022-12-07T07:58:45;5.77;;;3.60;;
12196;SDS011;6161;43.014;25.840;2022-12-07T08:01:11;6.17;;;4.33;;
12196;SDS011;6161;43.014;25.840;2022-12-07T08:03:38;5.47;;;4.30;;
12196;SDS011;6161;43.014;25.840;2022-12-07T08:06:03;6.90;;;4.20;;
12196;SDS011;6161;43.014;25.840;2022-12-07T08:08:29;6.53;;;4.03;;
12196;SDS011;6161;43.014;25.840;2022-12-07T08:10:54;5.63;;;4.27;;
12196;SDS011;6161;43.014;25.840;2022-12-07T08:13:20;6.47;;;4.20;;
12196;SDS011;6161;43.014;25.840;2022-12-07T08:15:47;6.83;;;4.20;;
12196;SDS011;6161;43.014;25.840;2022-12-07T08:18:12;7.87;;;4.67;;
12196;SDS011;6161;43.014;25.840;2022-12-07T08:20:39;5.37;;;3.80;;
12196;SDS011;6161;43.014;25.840;2022-12-07T08:23:05;5.20;;;3.93;;
12196;SDS011;6161;43.014;25.840;2022-12-07T08:25:31;6.97;;;4.23;;
12196;SDS011;6161;43.014;25.840;2022-12-07T08:27:56;6.37;;;4.30;;
12196;SDS011;6161;43.014;25.840;2022-12-07T08:30:22;7.07;;;5.03;;
12196;SDS011;6161;43.014;25.840;2022-12-07T08:32:47;7.23;;;4.80;;
12196;SDS011;6161;43.014;25.840;2022-12-07T08:35:14;4.93;;;3.90;;
12196;SDS011;6161;43.014;25.840;2022-12-07T08:37:40;4.47;;;3.20;;
12196;SDS011;6161;43.014;25.840;2022-12-07T08:40:07;4.63;;;3.10;;
12196;SDS011;6161;43.014;25.840;2022-12-07T08:42:33;5.90;;;3.60;;
12196;SDS011;6161;43.014;25.840;2022-12-07T08:45:05;6.67;;;4.27;;
12196;SDS011;6161;43.014;25.840;2022-12-07T08:47:31;6.50;;;4.57;;
12196;SDS011;6161;43.014;25.840;2022-12-07T08:49:56;6.97;;;4.87;;
12196;SDS011;6161;43.014;25.840;2022-12-07T08:52:22;8.13;;;4.63;;
12196;SDS011;6161;43.014;25.840;2022-12-07T08:54:47;6.03;;;4.30;;
12196;SDS011;6161;43.014;25.840;2022-12-07T08:57:13;4.47;;;3.67;;
12196;SDS011;6161;43.014;25.840;2022-12-07T08:59:38;5.67;;;3.87;;
12196;SDS011;6161;43.014;25.840;2022-12-07T09:02:04;7.27;;;4.00;;
12196;SDS011;6161;43.014;25.840;2022-12-07T09:04:29;7.47;;;4.13;;
12196;SDS011;6161;43.014;25.840;2022-12-07T09:06:55;5.20;;;3.90;;
12196;SDS011;6161;43.014;25.840;2022-12-07T09:09:20;7.10;;;3.87;;
12196;SDS011;6161;43.014;25.840;2022-12-07T09:11:45;7.13;;;4.03;;
12196;SDS011;6161;43.014;25.840;2022-12-07T09:14:11;5.67;;;3.90;;
12196;SDS011;6161;43.014;25.840;2022-12-07T09:16:37;5.87;;;4.27;;
12196;SDS011;6161;43.014;25.840;2022-12-07T09:19:02;6.33;;;4.43;;
12196;SDS011;6161;43.014;25.840;2022-12-07T09:21:28;7.17;;;5.00;;
12196;SDS011;6161;43.014;25.840;2022-12-07T09:23:53;6.53;;;4.30;;
12196;SDS011;6161;43.014;25.840;2022-12-07T09:26:18;7.40;;;4.63;;
12196;SDS011;6161;43.014;25.840;2022-12-07T09:28:43;6.80;;;4.50;;
12196;SDS011;6161;43.014;25.840;2022-12-07T09:31:09;12.90;;;4.77;;
12196;SDS011;6161;43.014;25.840;2022-12-07T09:33:34;6.67;;;4.73;;
12196;SDS011;6161;43.014;25.840;2022-12-07T09:36:00;7.40;;;4.67;;
12196;SDS011;6161;43.014;25.840;2022-12-07T09:38:25;6.40;;;4.50;;
12196;SDS011;6161;43.014;25.840;2022-12-07T09:40:51;7.43;;;5.13;;
12196;SDS011;6161;43.014;25.840;2022-12-07T09:43:18;5.87;;;4.17;;
12196;SDS011;6161;43.014;25.840;2022-12-07T09:45:44;5.67;;;4.57;;
12196;SDS011;6161;43.014;25.840;2022-12-07T09:48:18;5.80;;;4.40;;
12196;SDS011;6161;43.014;25.840;2022-12-07T09:50:44;5.83;;;4.63;;
12196;SDS011;6161;43.014;25.840;2022-12-07T09:53:15;5.90;;;4.43;;
12196;SDS011;6161;43.014;25.840;2022-12-07T09:55:42;5.97;;;4.40;;
12196;SDS011;6161;43.014;25.840;2022-12-07T09:58:26;6.20;;;4.50;;
12196;SDS011;6161;43.014;25.840;2022-12-07T10:01:14;6.60;;;4.77;;
12196;SDS011;6161;43.014;25.840;2022-12-07T10:03:39;5.73;;;4.70;;
12196;SDS011;6161;43.014;25.840;2022-12-07T10:06:05;6.27;;;4.50;;
12196;SDS011;6161;43.014;25.840;2022-12-07T10:08:31;5.27;;;4.10;;
12196;SDS011;6161;43.014;25.840;2022-12-07T10:10:57;5.63;;;4.30;;
12196;SDS011;6161;43.014;25.840;2022-12-07T10:13:33;4.87;;;4.20;;
12196;SDS011;6161;43.014;25.840;2022-12-07T10:15:59;5.97;;;4.03;;
12196;SDS011;6161;43.014;25.840;2022-12-07T10:18:35;6.33;;;3.30;;
12196;SDS011;6161;43.014;25.840;2022-12-07T10:23:42;3.77;;;3.20;;
12196;SDS011;6161;43.014;25.840;2022-12-07T10:28:45;5.93;;;3.93;;
12196;SDS011;6161;43.014;25.840;2022-12-07T10:31:20;7.83;;;4.83;;
12196;SDS011;6161;43.014;25.840;2022-12-07T10:36:25;8.07;;;4.20;;
12196;SDS011;6161;43.014;25.840;2022-12-07T10:38:52;3.50;;;3.20;;
12196;SDS011;6161;43.014;25.840;2022-12-07T10:41:17;4.00;;;3.20;;
12196;SDS011;6161;43.014;25.840;2022-12-07T10:43:56;4.97;;;3.83;;
12196;SDS011;6161;43.014;25.840;2022-12-07T10:54:10;4.53;;;3.30;;
12196;SDS011;6161;43.014;25.840;2022-12-07T11:12:09;4.07;;;2.87;;
12196;SDS011;6161;43.014;25.840;2022-12-07T11:17:07;3.77;;;2.73;;
12196;SDS011;6161;43.014;25.840;2022-12-07T11:20:00;3.17;;;2.67;;
12196;SDS011;6161;43.014;25.840;2022-12-07T11:22:36;3.93;;;2.97;;
12196;SDS011;6161;43.014;25.840;2022-12-07T11:27:49;4.27;;;2.87;;
12196;SDS011;6161;43.014;25.840;2022-12-07T11:30:19;4.10;;;3.30;;
12196;SDS011;6161;43.014;25.840;2022-12-07T11:38:17;5.40;;;3.20;;
12196;SDS011;6161;43.014;25.840;2022-12-07T11:40:53;4.43;;;3.10;;
12196;SDS011;6161;43.014;25.840;2022-12-07T11:43:26;4.10;;;3.40;;
12196;SDS011;6161;43.014;25.840;2022-12-07T11:45:58;3.63;;;2.97;;
12196;SDS011;6161;43.014;25.840;2022-12-07T11:48:29;4.47;;;3.43;;
12196;SDS011;6161;43.014;25.840;2022-12-07T11:50:56;5.70;;;3.70;;
12196;SDS011;6161;43.014;25.840;2022-12-07T11:56:12;3.53;;;2.80;;
12196;SDS011;6161;43.014;25.840;2022-12-07T12:03:46;3.77;;;3.10;;
12196;SDS011;6161;43.014;25.840;2022-12-07T12:06:14;5.67;;;3.03;;
12196;SDS011;6161;43.014;25.840;2022-12-07T12:08:44;3.90;;;3.10;;
12196;SDS011;6161;43.014;25.840;2022-12-07T12:13:53;5.33;;;2.83;;
12196;SDS011;6161;43.014;25.840;2022-12-07T12:16:32;3.40;;;2.50;;
12196;SDS011;6161;43.014;25.840;2022-12-07T12:21:42;4.13;;;3.23;;
12196;SDS011;6161;43.014;25.840;2022-12-07T12:24:17;5.20;;;3.50;;
12196;SDS011;6161;43.014;25.840;2022-12-07T12:26:53;3.80;;;2.93;;
12196;SDS011;6161;43.014;25.840;2022-12-07T12:29:21;4.17;;;3.40;;
12196;SDS011;6161;43.014;25.840;2022-12-07T12:32:04;6.17;;;3.37;;
12196;SDS011;6161;43.014;25.840;2022-12-07T12:34:32;3.60;;;3.17;;
12196;SDS011;6161;43.014;25.840;2022-12-07T12:36:57;4.93;;;2.87;;
12196;SDS011;6161;43.014;25.840;2022-12-07T12:39:23;4.80;;;3.30;;
12196;SDS011;6161;43.014;25.840;2022-12-07T12:41:52;5.30;;;3.10;;
12196;SDS011;6161;43.014;25.840;2022-12-07T12:46:51;4.47;;;3.23;;
12196;SDS011;6161;43.014;25.840;2022-12-07T12:54:23;5.77;;;3.30;;
12196;SDS011;6161;43.014;25.840;2022-12-07T12:59:22;3.77;;;3.03;;
12196;SDS011;6161;43.014;25.840;2022-12-07T13:01:49;4.30;;;3.20;;
12196;SDS011;6161;43.014;25.840;2022-12-07T13:04:21;4.87;;;2.93;;
12196;SDS011;6161;43.014;25.840;2022-12-07T13:06:48;4.77;;;3.00;;
12196;SDS011;6161;43.014;25.840;2022-12-07T13:09:20;4.63;;;3.27;;
12196;SDS011;6161;43.014;25.840;2022-12-07T13:11:49;4.40;;;3.30;;
12196;SDS011;6161;43.014;25.840;2022-12-07T13:17:05;3.37;;;2.93;;
12196;SDS011;6161;43.014;25.840;2022-12-07T13:27:37;4.40;;;2.80;;
12196;SDS011;6161;43.014;25.840;2022-12-07T13:30:03;4.60;;;3.03;;
12196;SDS011;6161;43.014;25.840;2022-12-07T13:32:33;3.67;;;2.77;;
12196;SDS011;6161;43.014;25.840;2022-12-07T13:34:59;3.60;;;2.87;;
12196;SDS011;6161;43.014;25.840;2022-12-07T13:37:25;3.47;;;2.90;;
12196;SDS011;6161;43.014;25.840;2022-12-07T13:39:56;4.03;;;3.00;;
12196;SDS011;6161;43.014;25.840;2022-12-07T13:42:24;3.80;;;3.40;;
12196;SDS011;6161;43.014;25.840;2022-12-07T13:44:51;4.80;;;3.60;;
12196;SDS011;6161;43.014;25.840;2022-12-07T13:47:27;3.67;;;3.30;;
12196;SDS011;6161;43.014;25.840;2022-12-07T13:49:56;4.73;;;3.37;;
12196;SDS011;6161;43.014;25.840;2022-12-07T13:52:25;5.10;;;3.70;;
12196;SDS011;6161;43.014;25.840;2022-12-07T13:54:58;4.50;;;2.93;;
12196;SDS011;6161;43.014;25.840;2022-12-07T13:57:24;5.60;;;3.53;;
12196;SDS011;6161;43.014;25.840;2022-12-07T13:59:50;4.33;;;3.30;;
12196;SDS011;6161;43.014;25.840;2022-12-07T14:04:48;3.77;;;3.03;;
12196;SDS011;6161;43.014;25.840;2022-12-07T14:07:29;5.67;;;3.40;;
12196;SDS011;6161;43.014;25.840;2022-12-07T14:09:55;4.30;;;3.00;;
12196;SDS011;6161;43.014;25.840;2022-12-07T14:12:20;3.30;;;2.93;;
12196;SDS011;6161;43.014;25.840;2022-12-07T14:14:47;3.43;;;2.90;;
12196;SDS011;6161;43.014;25.840;2022-12-07T14:17:17;4.33;;;3.37;;
12196;SDS011;6161;43.014;25.840;2022-12-07T14:19:47;4.60;;;3.33;;
12196;SDS011;6161;43.014;25.840;2022-12-07T14:22:24;6.43;;;4.13;;
12196;SDS011;6161;43.014;25.840;2022-12-07T14:24:49;4.40;;;3.40;;
12196;SDS011;6161;43.014;25.840;2022-12-07T14:27:22;6.03;;;4.20;;
12196;SDS011;6161;43.014;25.840;2022-12-07T14:29:50;4.40;;;3.17;;
12196;SDS011;6161;43.014;25.840;2022-12-07T14:32:23;3.40;;;2.53;;
12196;SDS011;6161;43.014;25.840;2022-12-07T14:35:00;4.03;;;2.77;;
12196;SDS011;6161;43.014;25.840;2022-12-07T14:37:26;4.17;;;3.03;;
12196;SDS011;6161;43.014;25.840;2022-12-07T14:39:51;4.67;;;3.90;;
12196;SDS011;6161;43.014;25.840;2022-12-07T14:42:17;4.73;;;3.73;;
12196;SDS011;6161;43.014;25.840;2022-12-07T14:44:42;11.23;;;5.87;;
12196;SDS011;6161;43.014;25.840;2022-12-07T14:47:10;11.80;;;7.63;;
12196;SDS011;6161;43.014;25.840;2022-12-07T14:49:36;10.67;;;7.70;;
12196;SDS011;6161;43.014;25.840;2022-12-07T14:52:01;7.93;;;5.50;;
12196;SDS011;6161;43.014;25.840;2022-12-07T14:54:27;6.13;;;3.77;;
12196;SDS011;6161;43.014;25.840;2022-12-07T14:56:54;9.73;;;5.90;;
12196;SDS011;6161;43.014;25.840;2022-12-07T14:59:19;6.20;;;3.60;;
12196;SDS011;6161;43.014;25.840;2022-12-07T15:01:45;4.47;;;3.50;;
12196;SDS011;6161;43.014;25.840;2022-12-07T15:04:10;4.37;;;2.80;;
12196;SDS011;6161;43.014;25.840;2022-12-07T15:06:35;4.80;;;2.77;;
12196;SDS011;6161;43.014;25.840;2022-12-07T15:09:01;4.87;;;4.07;;
12196;SDS011;6161;43.014;25.840;2022-12-07T15:11:27;4.20;;;3.50;;
12196;SDS011;6161;43.014;25.840;2022-12-07T15:13:52;7.70;;;3.00;;
12196;SDS011;6161;43.014;25.840;2022-12-07T15:16:33;4.47;;;3.40;;
12196;SDS011;6161;43.014;25.840;2022-12-07T15:18:58;6.10;;;3.13;;
12196;SDS011;6161;43.014;25.840;2022-12-07T15:21:23;5.13;;;3.73;;
12196;SDS011;6161;43.014;25.840;2022-12-07T15:23:49;4.10;;;3.03;;
12196;SDS011;6161;43.014;25.840;2022-12-07T15:26:15;3.70;;;2.90;;
12196;SDS011;6161;43.014;25.840;2022-12-07T15:28:40;3.67;;;2.87;;
12196;SDS011;6161;43.014;25.840;2022-12-07T15:31:12;4.60;;;3.20;;
12196;SDS011;6161;43.014;25.840;2022-12-07T15:33:38;6.10;;;3.13;;
12196;SDS011;6161;43.014;25.840;2022-12-07T15:36:04;4.17;;;3.20;;
12196;SDS011;6161;43.014;25.840;2022-12-07T15:38:29;3.57;;;3.07;;
12196;SDS011;6161;43.014;25.840;2022-12-07T15:40:55;5.03;;;3.80;;
12196;SDS011;6161;43.014;25.840;2022-12-07T15:43:21;4.10;;;3.40;;
12196;SDS011;6161;43.014;25.840;2022-12-07T15:46:04;4.67;;;3.30;;
12196;SDS011;6161;43.014;25.840;2022-12-07T15:48:30;4.47;;;3.30;;
12196;SDS011;6161;43.014;25.840;2022-12-07T15:51:05;4.10;;;3.70;;
12196;SDS011;6161;43.014;25.840;2022-12-07T15:53:30;3.23;;;2.87;;
12196;SDS011;6161;43.014;25.840;2022-12-07T15:55:56;3.73;;;2.90;;
12196;SDS011;6161;43.014;25.840;2022-12-07T15:58:21;3.67;;;3.10;;
12196;SDS011;6161;43.014;25.840;2022-12-07T16:00:47;4.13;;;2.93;;
12196;SDS011;6161;43.014;25.840;2022-12-07T16:03:13;3.20;;;2.43;;
12196;SDS011;6161;43.014;25.840;2022-12-07T16:05:38;3.40;;;2.87;;
12196;SDS011;6161;43.014;25.840;2022-12-07T16:08:03;3.10;;;2.80;;
12196;SDS011;6161;43.014;25.840;2022-12-07T16:10:29;2.43;;;2.23;;
12196;SDS011;6161;43.014;25.840;2022-12-07T16:12:54;2.97;;;2.33;;
12196;SDS011;6161;43.014;25.840;2022-12-07T16:15:20;4.20;;;2.80;;
12196;SDS011;6161;43.014;25.840;2022-12-07T16:17:45;7.83;;;2.80;;
12196;SDS011;6161;43.014;25.840;2022-12-07T16:20:11;3.03;;;2.40;;
12196;SDS011;6161;43.014;25.840;2022-12-07T16:22:36;3.83;;;2.73;;
12196;SDS011;6161;43.014;25.840;2022-12-07T16:25:01;4.10;;;2.97;;
12196;SDS011;6161;43.014;25.840;2022-12-07T16:27:27;5.23;;;2.87;;
12196;SDS011;6161;43.014;25.840;2022-12-07T16:29:52;3.40;;;3.10;;
12196;SDS011;6161;43.014;25.840;2022-12-07T16:32:17;4.20;;;2.97;;
12196;SDS011;6161;43.014;25.840;2022-12-07T16:34:43;8.43;;;3.23;;
12196;SDS011;6161;43.014;25.840;2022-12-07T16:37:08;4.67;;;3.30;;
12196;SDS011;6161;43.014;25.840;2022-12-07T16:39:33;3.53;;;2.97;;